createdAt,value
2019-03-21T00:01:49.997Z,110.55
2019-03-21T00:04:19.610Z,117.77
2019-03-21T00:06:49.093Z,110.30
2019-03-21T00:09:19.064Z,114.50
2019-03-21T00:12:03.337Z,110.08
2019-03-21T00:15:03.495Z,110.72
2019-03-21T00:17:36.172Z,110.75
2019-03-21T00:20:09.293Z,107.78
2019-03-21T00:22:38.781Z,108.30
2019-03-21T00:25:09.345Z,110.15
2019-03-21T00:27:38.853Z,109.45
2019-03-21T00:30:12.512Z,111.47
2019-03-21T00:32:42.207Z,109.92
2019-03-21T00:35:11.798Z,106.67
2019-03-21T00:37:41.466Z,110.45
2019-03-21T00:40:14.189Z,114.32
2019-03-21T00:42:43.733Z,111.95
2019-03-21T00:45:14.843Z,111.42
2019-03-21T00:47:44.471Z,112.97
2019-03-21T00:50:15.722Z,110.88
2019-03-21T00:52:46.714Z,109.65
2019-03-21T00:55:16.133Z,111.90
2019-03-21T00:57:45.633Z,113.17
2019-03-21T01:00:18.798Z,109.90
2019-03-21T01:02:48.297Z,112.92
2019-03-21T01:05:17.713Z,111.37
2019-03-21T01:07:47.311Z,113.22
2019-03-21T01:10:17.606Z,110.32
2019-03-21T01:12:47.014Z,110.00
2019-03-21T01:15:16.481Z,114.95
2019-03-21T01:17:46.018Z,111.32
2019-03-21T01:20:17.089Z,114.37
2019-03-21T01:22:46.697Z,110.48
2019-03-21T01:25:19.492Z,113.65
2019-03-21T01:27:48.962Z,110.63
2019-03-21T01:30:18.473Z,111.88
2019-03-21T01:32:48.019Z,111.83
2019-03-21T01:35:17.509Z,113.25
2019-03-21T01:37:47.040Z,112.10
2019-03-21T01:40:19.098Z,108.52
2019-03-21T01:42:48.601Z,112.20
2019-03-21T01:45:20.027Z,119.15
2019-03-21T01:47:49.844Z,111.15
2019-03-21T01:50:19.361Z,110.60
2019-03-21T01:52:48.901Z,112.50
2019-03-21T01:55:18.474Z,111.95
2019-03-21T01:57:47.968Z,110.30
2019-03-21T02:00:23.834Z,109.10
2019-03-21T02:02:54.815Z,112.22
2019-03-21T02:05:24.302Z,112.03
2019-03-21T02:07:53.769Z,110.55
2019-03-21T02:10:23.333Z,111.52
2019-03-21T02:12:52.909Z,108.05
2019-03-21T02:15:22.454Z,111.22
2019-03-21T02:17:52.036Z,109.60
2019-03-21T02:20:21.642Z,111.65
2019-03-21T02:22:51.204Z,87.30
2019-03-21T02:25:22.758Z,110.52
2019-03-21T02:27:52.312Z,108.37
2019-03-21T02:30:27.638Z,109.50
2019-03-21T02:33:01.869Z,113.57
2019-03-21T02:35:31.414Z,106.32
2019-03-21T02:38:00.925Z,86.45
2019-03-21T02:40:30.506Z,83.35
2019-03-21T02:43:00.080Z,89.03
2019-03-21T02:45:29.678Z,114.30
2019-03-21T02:47:59.129Z,112.40
2019-03-21T02:50:31.184Z,109.80
2019-03-21T02:53:00.736Z,112.77
2019-03-21T02:55:30.226Z,110.83
2019-03-21T02:57:59.730Z,111.52
2019-03-21T03:00:29.929Z,112.22
2019-03-21T03:03:00.306Z,112.62
2019-03-21T03:05:30.589Z,108.20
2019-03-21T03:08:00.097Z,110.63
2019-03-21T03:10:32.510Z,109.25
2019-03-21T03:13:02.078Z,108.67
2019-03-21T03:15:32.386Z,108.97
2019-03-21T03:18:02.256Z,108.25
2019-03-21T03:20:33.019Z,110.72
2019-03-21T03:23:02.423Z,108.72
2019-03-21T03:25:31.861Z,116.35
2019-03-21T03:28:05.213Z,88.12
2019-03-21T03:30:34.975Z,109.50
2019-03-21T03:33:04.431Z,109.57
2019-03-21T03:35:34.215Z,81.67
2019-03-21T03:38:03.769Z,111.00
2019-03-21T03:40:36.570Z,111.62
2019-03-21T03:43:06.137Z,111.00
2019-03-21T03:45:38.463Z,86.80
2019-03-21T03:48:08.552Z,110.55
2019-03-21T03:50:38.024Z,108.57
2019-03-21T03:53:07.679Z,109.30
2019-03-21T03:55:37.370Z,110.45
2019-03-21T03:58:09.106Z,111.75
2019-03-21T04:00:38.940Z,107.52
2019-03-21T04:03:08.522Z,107.32
2019-03-21T04:05:38.035Z,107.52
2019-03-21T04:08:07.898Z,110.10
2019-03-21T04:10:39.505Z,82.95
2019-03-21T04:13:09.034Z,84.03
2019-03-21T04:15:51.756Z,116.73
2019-03-21T04:18:11.057Z,110.70
2019-03-21T04:20:42.471Z,106.40
2019-03-21T04:23:12.122Z,116.28
2019-03-21T04:25:47.840Z,107.47
2019-03-21T04:28:17.428Z,106.87
2019-03-21T04:30:49.676Z,106.17
2019-03-21T04:33:22.364Z,105.65
2019-03-21T04:35:50.357Z,103.20
2019-03-21T04:38:19.861Z,108.80
2019-03-21T04:40:49.365Z,85.62
2019-03-21T04:43:18.840Z,107.63
2019-03-21T04:45:48.388Z,108.45
2019-03-21T04:48:17.778Z,84.32
2019-03-21T04:50:47.184Z,108.63
2019-03-21T04:53:16.653Z,87.97
2019-03-21T04:55:46.225Z,85.53
2019-03-21T04:58:15.633Z,105.47
2019-03-21T05:00:45.078Z,105.67
2019-03-21T05:03:14.649Z,109.42
2019-03-21T05:05:44.221Z,108.78
2019-03-21T05:08:13.757Z,84.25
2019-03-21T05:10:43.412Z,119.80
2019-03-21T05:13:12.892Z,110.85
2019-03-21T05:15:42.477Z,84.97
2019-03-21T05:18:15.478Z,91.85
2019-03-21T05:20:44.922Z,119.95
2019-03-21T05:23:14.412Z,107.40
2019-03-21T05:25:44.357Z,109.52
2019-03-21T05:28:13.909Z,110.65
2019-03-21T05:31:07.867Z,107.60
2019-03-21T05:33:37.335Z,108.83
2019-03-21T05:36:06.848Z,85.95
2019-03-21T05:38:36.331Z,107.22
2019-03-21T05:41:06.306Z,113.65
2019-03-21T05:43:39.787Z,101.58
2019-03-21T05:46:10.190Z,89.58
2019-03-21T05:48:39.771Z,106.22
2019-03-21T05:51:09.425Z,107.70
2019-03-21T05:53:39.371Z,110.03
2019-03-21T05:56:11.906Z,85.65
2019-03-21T05:58:41.401Z,83.87
2019-03-21T06:01:14.090Z,107.52
2019-03-21T06:03:50.555Z,107.87
2019-03-21T06:06:42.655Z,110.40
2019-03-21T06:09:13.674Z,112.37
2019-03-21T06:11:45.733Z,111.88
2019-03-21T06:14:15.225Z,123.02
2019-03-21T06:16:44.840Z,111.47
2019-03-21T06:19:31.212Z,114.40
2019-03-21T06:22:45.520Z,122.05
2019-03-21T06:25:51.975Z,108.57
2019-03-21T06:28:21.372Z,111.90
2019-03-21T06:30:50.812Z,114.65
2019-03-21T06:33:20.252Z,114.03
2019-03-21T06:35:50.030Z,112.80
2019-03-21T06:38:19.437Z,112.75
2019-03-21T06:40:49.039Z,115.35
2019-03-21T06:43:18.711Z,119.17
2019-03-21T06:45:48.395Z,121.33
2019-03-21T06:48:18.297Z,116.33
2019-03-21T06:50:47.732Z,116.82
2019-03-21T06:53:17.233Z,118.57
2019-03-21T06:55:46.737Z,120.47
2019-03-21T06:58:16.153Z,121.13
2019-03-21T07:00:45.602Z,117.95
2019-03-21T07:03:16.409Z,121.33
2019-03-21T07:05:46.250Z,119.08
2019-03-21T07:08:15.723Z,123.38
2019-03-21T07:10:45.292Z,119.87
2019-03-21T07:13:14.922Z,120.70
2019-03-21T07:15:44.441Z,117.10
2019-03-21T07:18:13.897Z,120.82
2019-03-21T07:20:43.369Z,125.95
2019-03-21T07:23:12.988Z,127.75
2019-03-21T07:25:42.662Z,121.22
2019-03-21T07:28:12.254Z,122.53
2019-03-21T07:30:41.727Z,125.90
2019-03-21T07:33:11.393Z,121.55
2019-03-21T07:35:40.920Z,125.12
2019-03-21T07:38:10.330Z,122.55
2019-03-21T07:40:39.773Z,121.87
2019-03-21T07:43:09.341Z,124.30
2019-03-21T07:45:38.766Z,126.92
2019-03-21T07:48:08.213Z,125.15
2019-03-21T07:50:37.609Z,124.80
2019-03-21T07:53:07.217Z,131.87
2019-03-21T07:55:36.650Z,129.45
2019-03-21T07:58:06.266Z,124.25
2019-03-21T08:00:35.837Z,127.82
2019-03-21T08:03:05.427Z,130.60
2019-03-21T08:05:40.390Z,130.90
2019-03-21T08:08:06.157Z,131.47
2019-03-21T08:10:35.699Z,130.52
2019-03-21T08:13:05.275Z,131.05
2019-03-21T08:15:34.794Z,133.10
2019-03-21T08:18:04.367Z,134.22
2019-03-21T08:20:33.936Z,128.68
2019-03-21T08:23:03.460Z,136.10
2019-03-21T08:25:32.965Z,130.93
2019-03-21T08:28:02.554Z,134.80
2019-03-21T08:30:58.654Z,137.65
2019-03-21T08:33:28.105Z,138.97
2019-03-21T08:35:57.587Z,144.95
2019-03-21T08:38:27.543Z,138.92
2019-03-21T08:40:57.015Z,132.72
2019-03-21T08:43:26.412Z,148.35
2019-03-21T08:45:55.895Z,137.25
2019-03-21T08:48:25.285Z,134.72
2019-03-21T08:50:54.850Z,143.28
2019-03-21T08:53:24.259Z,141.47
2019-03-21T08:55:53.812Z,136.03
2019-03-21T08:58:23.241Z,144.80
2019-03-21T09:00:52.727Z,142.65
2019-03-21T09:03:22.133Z,150.22
2019-03-21T09:05:51.545Z,143.97
2019-03-21T09:08:20.961Z,143.62
2019-03-21T09:10:50.444Z,144.20
2019-03-21T09:13:19.950Z,143.07
2019-03-21T09:15:49.445Z,147.75
2019-03-21T09:18:19.144Z,155.32
2019-03-21T09:20:48.713Z,148.70
2019-03-21T09:23:18.182Z,156.02
2019-03-21T09:25:47.703Z,149.35
2019-03-21T09:28:17.092Z,151.02
2019-03-21T09:30:46.554Z,149.47
2019-03-21T09:33:16.030Z,154.12
2019-03-21T09:35:45.415Z,153.53
2019-03-21T09:38:14.996Z,153.87
2019-03-21T09:40:44.469Z,154.85
2019-03-21T09:43:13.938Z,159.43
2019-03-21T09:45:43.482Z,162.55
2019-03-21T09:48:12.975Z,162.92
2019-03-21T09:50:42.426Z,157.20
2019-03-21T09:53:11.932Z,164.55
2019-03-21T09:55:41.418Z,157.95
2019-03-21T09:58:10.978Z,168.37
2019-03-21T10:00:40.368Z,164.10
2019-03-21T10:03:09.881Z,165.40
2019-03-21T10:05:39.402Z,161.85
2019-03-21T10:08:08.998Z,167.93
2019-03-21T10:10:38.479Z,172.22
2019-03-21T10:13:07.966Z,171.10
2019-03-21T10:15:38.922Z,168.02
2019-03-21T10:18:08.483Z,175.32
2019-03-21T10:20:38.059Z,166.40
2019-03-21T10:23:07.646Z,170.15
2019-03-21T10:25:37.129Z,181.78
2019-03-21T10:28:06.662Z,174.07
2019-03-21T10:30:40.627Z,191.05
2019-03-21T10:33:11.652Z,196.00
2019-03-21T10:35:41.136Z,183.25
2019-03-21T10:38:10.660Z,196.50
2019-03-21T10:40:40.318Z,207.10
2019-03-21T10:43:10.700Z,204.72
2019-03-21T10:45:40.522Z,208.95
2019-03-21T10:48:10.022Z,205.07
2019-03-21T10:50:40.517Z,200.97
2019-03-21T10:53:10.532Z,200.00
2019-03-21T10:55:40.023Z,206.90
2019-03-21T10:58:09.797Z,198.35
2019-03-21T11:00:39.641Z,216.90
2019-03-21T11:03:09.185Z,215.30
2019-03-21T11:05:38.806Z,208.45
2019-03-21T11:08:08.338Z,206.72
2019-03-21T11:10:37.955Z,220.22
2019-03-21T11:13:07.540Z,213.45
2019-03-21T11:15:37.084Z,212.53
2019-03-21T11:18:06.662Z,222.67
2019-03-21T11:20:40.370Z,219.70
2019-03-21T11:23:10.128Z,217.28
2019-03-21T11:25:42.449Z,225.18
2019-03-21T11:28:11.929Z,221.30
2019-03-21T11:30:45.462Z,229.65
2019-03-21T11:33:15.081Z,213.72
2019-03-21T11:35:44.640Z,207.37
2019-03-21T11:38:14.045Z,227.97
2019-03-21T11:40:43.524Z,221.95
2019-03-21T11:43:14.921Z,218.30
2019-03-21T11:45:44.521Z,215.35
2019-03-21T11:48:13.962Z,238.43
2019-03-21T11:50:43.490Z,237.17
2019-03-21T11:53:12.966Z,236.95
2019-03-21T11:55:42.537Z,228.73
2019-03-21T11:58:11.986Z,235.70
2019-03-21T12:00:44.029Z,246.53
2019-03-21T12:03:13.510Z,236.35
2019-03-21T12:05:42.927Z,248.43
2019-03-21T12:08:12.419Z,253.15
2019-03-21T12:10:41.911Z,246.32
2019-03-21T12:13:11.509Z,239.45
2019-03-21T12:15:41.031Z,241.40
2019-03-21T12:18:10.550Z,250.62
2019-03-21T12:20:39.984Z,236.37
2019-03-21T12:23:09.557Z,229.72
2019-03-21T12:25:38.963Z,241.17
2019-03-21T12:28:08.476Z,240.47
2019-03-21T12:30:42.424Z,247.48
2019-03-21T12:33:12.088Z,249.95
2019-03-21T12:35:41.632Z,235.45
2019-03-21T12:38:11.817Z,234.55
2019-03-21T12:40:41.295Z,236.82
2019-03-21T12:43:10.754Z,256.80
2019-03-21T12:45:40.289Z,230.92
2019-03-21T12:48:09.793Z,248.47
2019-03-21T12:50:42.053Z,237.45
2019-03-21T12:53:11.601Z,241.65
2019-03-21T12:55:41.107Z,244.72
2019-03-21T12:58:10.550Z,248.55
2019-03-21T13:00:41.597Z,232.40
2019-03-21T13:03:11.351Z,254.18
2019-03-21T13:05:40.902Z,245.80
2019-03-21T13:08:10.449Z,258.05
2019-03-21T13:10:40.006Z,258.77
2019-03-21T13:13:09.676Z,266.55
2019-03-21T13:15:39.240Z,258.55
2019-03-21T13:18:09.503Z,268.97
2019-03-21T13:20:39.328Z,255.75
2019-03-21T13:23:10.662Z,263.32
2019-03-21T13:25:40.147Z,272.63
2019-03-21T13:28:09.664Z,273.13
2019-03-21T13:30:39.289Z,279.68
2019-03-21T13:33:11.453Z,263.95
2019-03-21T13:35:40.886Z,260.93
2019-03-21T13:38:10.407Z,272.65
2019-03-21T13:40:39.829Z,276.10
2019-03-21T13:43:11.319Z,275.52
2019-03-21T13:45:40.606Z,288.18
2019-03-21T13:48:10.361Z,279.90
2019-03-21T13:50:40.153Z,269.32
2019-03-21T13:53:18.578Z,290.45
2019-03-21T13:55:41.166Z,294.25
2019-03-21T13:58:10.562Z,306.70
2019-03-21T14:00:41.160Z,285.65
2019-03-21T14:03:12.404Z,280.52
2019-03-21T14:05:41.969Z,286.92
2019-03-21T14:08:11.386Z,291.15
2019-03-21T14:10:40.765Z,279.20
2019-03-21T14:13:10.214Z,285.43
2019-03-21T14:15:40.129Z,278.07
2019-03-21T14:18:09.753Z,281.77
2019-03-21T14:20:41.965Z,292.55
2019-03-21T14:23:17.245Z,288.90
2019-03-21T14:25:45.100Z,283.17
2019-03-21T14:28:14.577Z,282.57
2019-03-21T14:30:44.214Z,289.65
2019-03-21T14:33:13.819Z,288.57
2019-03-21T14:35:43.374Z,263.10
2019-03-21T14:38:25.895Z,279.77
2019-03-21T14:40:46.396Z,277.75
2019-03-21T14:43:16.034Z,275.07
2019-03-21T14:45:45.582Z,283.52
2019-03-21T14:48:15.030Z,281.30
2019-03-21T14:50:44.590Z,268.27
2019-03-21T14:53:14.074Z,265.92
2019-03-21T14:55:47.662Z,280.15
2019-03-21T14:58:14.641Z,281.32
2019-03-21T15:00:45.312Z,276.67
2019-03-21T15:03:14.869Z,303.02
2019-03-21T15:05:44.407Z,269.65
2019-03-21T15:08:13.919Z,282.48
2019-03-21T15:10:43.456Z,273.65
2019-03-21T15:13:12.941Z,266.93
2019-03-21T15:15:42.445Z,280.75
2019-03-21T15:18:12.069Z,269.48
2019-03-21T15:20:41.987Z,275.68
2019-03-21T15:23:14.083Z,286.12
2019-03-21T15:25:43.591Z,268.90
2019-03-21T15:28:13.303Z,272.88
2019-03-21T15:30:43.055Z,274.30
2019-03-21T15:33:12.599Z,299.02
2019-03-21T15:35:42.168Z,253.52
2019-03-21T15:38:11.711Z,268.48
2019-03-21T15:40:41.302Z,276.85
2019-03-21T15:43:10.995Z,257.65
2019-03-21T15:45:42.134Z,250.72
2019-03-21T15:48:15.616Z,243.75
2019-03-21T15:50:49.832Z,259.48
2019-03-21T15:53:20.476Z,263.85
2019-03-21T15:55:50.525Z,256.20
2019-03-21T15:58:20.292Z,253.12
2019-03-21T16:00:49.753Z,255.98
2019-03-21T16:03:32.595Z,253.80
2019-03-21T16:06:02.190Z,268.45
2019-03-21T16:08:31.952Z,260.05
2019-03-21T16:11:01.491Z,248.47
2019-03-21T16:13:31.140Z,256.15
2019-03-21T16:16:00.724Z,253.32
2019-03-21T16:18:32.377Z,256.93
2019-03-21T16:21:02.112Z,252.50
2019-03-21T16:23:31.534Z,252.82
2019-03-21T16:26:01.360Z,257.73
2019-03-21T16:28:31.122Z,242.40
2019-03-21T16:31:40.491Z,233.68
2019-03-21T16:34:34.097Z,237.15
2019-03-21T16:37:07.630Z,236.05
2019-03-21T16:40:06.721Z,212.90
2019-03-21T16:42:37.673Z,357.87
2019-03-21T16:45:10.415Z,260.43
2019-03-21T16:47:39.909Z,255.40
2019-03-21T16:50:09.676Z,215.43
2019-03-21T16:52:40.840Z,224.45
2019-03-21T16:55:10.678Z,220.33
2019-03-21T16:57:40.330Z,225.47
2019-03-21T17:00:10.237Z,228.27
2019-03-21T17:02:41.014Z,228.85
2019-03-21T17:05:11.081Z,206.53
2019-03-21T17:07:41.222Z,210.30
2019-03-21T17:10:11.755Z,212.30
2019-03-21T17:12:42.288Z,207.40
2019-03-21T17:15:12.012Z,209.27
2019-03-21T17:17:41.625Z,208.65
2019-03-21T17:20:11.422Z,228.25
2019-03-21T17:22:41.475Z,196.63
2019-03-21T17:25:11.840Z,195.00
2019-03-21T17:27:41.282Z,205.87
2019-03-21T17:30:12.033Z,198.17
2019-03-21T17:32:41.550Z,196.95
2019-03-21T17:35:11.400Z,188.07
2019-03-21T17:37:40.909Z,191.82
2019-03-21T17:40:13.090Z,195.38
2019-03-21T17:42:43.313Z,197.43
2019-03-21T17:45:14.385Z,188.45
2019-03-21T17:47:45.943Z,183.37
2019-03-21T17:50:17.047Z,188.50
2019-03-21T17:52:46.690Z,182.47
2019-03-21T17:55:16.462Z,187.00
2019-03-21T17:57:47.733Z,195.32
2019-03-21T18:00:19.129Z,173.13
2019-03-21T18:02:48.773Z,173.53
2019-03-21T18:05:18.439Z,178.65
2019-03-21T18:07:48.022Z,189.15
2019-03-21T18:10:28.485Z,179.42
2019-03-21T18:12:58.200Z,175.87
2019-03-21T18:15:29.418Z,167.47
2019-03-21T18:18:05.930Z,176.53
2019-03-21T18:20:36.099Z,183.70
2019-03-21T18:23:05.761Z,189.55
2019-03-21T18:25:35.306Z,185.57
2019-03-21T18:36:12.012Z,217.75
2019-03-21T18:38:42.002Z,182.50
2019-03-21T18:41:11.487Z,171.90
2019-03-21T18:43:40.926Z,173.05
2019-03-21T18:46:10.400Z,176.97
2019-03-21T18:48:39.812Z,159.93
2019-03-21T18:51:09.342Z,157.60
2019-03-21T18:53:38.858Z,165.32
2019-03-21T18:56:09.583Z,175.68
2019-03-21T18:58:39.154Z,169.75
2019-03-21T19:01:08.721Z,163.77
2019-03-21T19:03:38.209Z,165.47
2019-03-21T19:06:07.619Z,166.10
2019-03-21T19:08:37.042Z,166.65
2019-03-21T19:11:06.474Z,157.45
2019-03-21T19:13:35.895Z,157.00
2019-03-21T19:16:05.488Z,152.78
2019-03-21T19:18:34.934Z,144.50
2019-03-21T19:21:04.490Z,150.82
2019-03-21T19:23:33.902Z,154.42
2019-03-21T19:26:03.466Z,147.87
2019-03-21T19:28:32.908Z,157.75
2019-03-21T19:31:02.472Z,151.25
2019-03-21T19:33:32.058Z,156.90
2019-03-21T19:36:02.824Z,148.62
2019-03-21T19:38:33.849Z,146.95
2019-03-21T19:41:03.398Z,143.52
2019-03-21T19:43:33.181Z,146.10
2019-03-21T19:46:05.331Z,146.02
2019-03-21T19:48:35.983Z,143.07
2019-03-21T19:51:05.625Z,143.30
2019-03-21T19:53:35.137Z,140.92
2019-03-21T19:56:08.762Z,149.80
2019-03-21T19:58:35.997Z,155.43
2019-03-21T20:01:05.825Z,143.97
2019-03-21T20:03:36.612Z,144.90
2019-03-21T20:06:07.084Z,139.72
2019-03-21T20:08:36.998Z,136.75
2019-03-21T20:11:06.591Z,146.80
2019-03-21T20:13:36.594Z,133.35
2019-03-21T20:16:06.273Z,137.95
2019-03-21T20:18:35.850Z,136.20
2019-03-21T20:21:05.535Z,136.95
2019-03-21T20:23:35.045Z,136.75
2019-03-21T20:26:04.848Z,134.70
2019-03-21T20:28:34.433Z,139.77
2019-03-21T20:31:04.206Z,127.22
2019-03-21T20:33:33.731Z,146.95
2019-03-21T20:36:03.616Z,139.57
2019-03-21T20:38:33.210Z,133.20
2019-03-21T20:41:02.797Z,141.28
2019-03-21T20:43:32.338Z,130.57
2019-03-21T20:46:01.930Z,131.32
2019-03-21T20:48:30.443Z,144.90
2019-03-21T20:51:00.420Z,132.93
2019-03-21T20:53:29.922Z,130.70
2019-03-21T20:55:59.357Z,135.93
2019-03-21T20:58:28.987Z,132.57
2019-03-21T21:00:58.615Z,130.18
2019-03-21T21:03:28.307Z,132.32
2019-03-21T21:05:57.871Z,126.20
2019-03-21T21:08:27.315Z,127.80
2019-03-21T21:10:58.420Z,125.33
2019-03-21T21:13:28.133Z,135.45
2019-03-21T21:15:57.760Z,128.93
2019-03-21T21:18:28.295Z,128.53
2019-03-21T21:20:57.888Z,131.80
2019-03-21T21:23:27.771Z,132.82
2019-03-21T21:26:05.354Z,128.12
2019-03-21T21:28:30.435Z,134.30
2019-03-21T21:31:19.154Z,129.42
2019-03-21T21:33:50.599Z,124.15
2019-03-21T21:36:22.097Z,139.20
2019-03-21T21:38:52.781Z,125.92
2019-03-21T21:41:22.394Z,126.30
2019-03-21T21:43:55.074Z,131.35
2019-03-21T21:46:24.956Z,125.55
2019-03-21T21:48:54.792Z,126.82
2019-03-21T21:51:24.402Z,132.72
2019-03-21T21:53:53.929Z,122.25
2019-03-21T21:56:24.650Z,116.65
2019-03-21T21:58:54.546Z,123.53
2019-03-21T22:01:24.081Z,123.10
2019-03-21T22:04:04.207Z,126.53
2019-03-21T22:06:25.878Z,121.20
2019-03-21T22:08:56.164Z,123.13
2019-03-21T22:11:27.375Z,122.05
2019-03-21T22:13:57.126Z,124.00
2019-03-21T22:16:27.370Z,124.80
2019-03-21T22:18:56.977Z,122.10
2019-03-21T22:21:31.037Z,118.08
2019-03-21T22:24:00.671Z,122.00
2019-03-21T22:26:30.647Z,119.35
2019-03-21T22:29:00.105Z,121.28
2019-03-21T22:31:29.693Z,120.60
2019-03-21T22:33:59.229Z,123.82
2019-03-21T22:36:31.974Z,121.20
2019-03-21T22:39:03.745Z,118.00
2019-03-21T22:41:33.378Z,120.40
2019-03-21T23:53:35.925Z,118.30
2019-03-21T23:56:05.409Z,117.47
2019-03-21T23:58:34.810Z,122.20
